MUHG

Frank Pais International Airport

Holguin, Cuba
MUHG 190500Z 1906/2006 VRB03KT 9000 FEW020 TEMPO 1906/1912 5000 BR SHRA BKN015 BECMG 1915/1917 09010KT SCT020 TEMPO 1918/1924 5000 SHRA FEW015CB BKN020 BECMG 2003/2005 VRB03KT FEW020
Issued Valid From Valid To
Apr-19 @ 05:00 UTC
(5 hours ago)
Apr-19 @ 06:00 UTC
(4 hours ago)
Apr-20 @ 06:00 UTC
(in 20 hours)
Apr-19 @ 06:00 to Apr-19 @ 15:00
MUHG 190500Z 1906/2006 VRB03KT 9000 FEW020
Wind Visibility Clouds
Variable at 3 knots 8,996 meters
  • Few at 2,000' AGL
Temporary Apr-19 @ 06:00 to Apr-19 @ 12:00
TEMPO 1906/1912 5000 BR SHRA BKN015
Visibility Clouds Conditions
5,005 meters
  • Broken at 1,500' AGL
  • Mist
  • Rain
Becoming Apr-19 @ 15:00 to Apr-20 @ 03:00
BECMG 1915/1917 09010KT SCT020
Wind Visibility Clouds
90° at 10 knots 8,996 meters
  • Scattered at 2,000' AGL
Temporary Apr-19 @ 18:00 to Apr-20 @ 00:00
TEMPO 1918/1924 5000 SHRA FEW015CB BKN020
Visibility Clouds Conditions
5,005 meters
  • Few at 1,500' AGL
  • Broken at 2,000' AGL
  • Rain
Becoming Apr-20 @ 03:00 to Apr-20 @ 06:00
BECMG 2003/2005 VRB03KT FEW020
Wind Visibility Clouds
Variable at 3 knots 8,996 meters
  • Few at 2,000' AGL
MUHG 190500Z 1906/2006 VRB03KT 9000 FEW020 TEMPO 1906/1912 5000 BR SHRA BKN015 BECMG 1915/1917 09010KT SCT020 TEMPO 1918/1924 5000 SHRA FEW015CB BKN020 BECMG 2003/2005 VRB03KT FEW020
Issued Apr-19 @ 05:00 UTC
(5 hours ago)
Valid From Apr-19 @ 06:00 UTC
(4 hours ago)
Valid To Apr-20 @ 06:00 UTC
(in 20 hours)
Apr-19 @ 06:00 - Apr-19 @ 15:00
Wind Visibility
Variable at 3 knots 8,996 meters
Clouds
  • Few at 2,000' AGL
Temporary Apr-19 @ 06:00 - Apr-19 @ 12:00
Clouds
  • Broken at 1,500' AGL
Conditions
  • Mist
  • Rain
Becoming Apr-19 @ 15:00 - Apr-20 @ 03:00
Wind Visibility
90° at 10 knots 8,996 meters
Clouds
  • Scattered at 2,000' AGL
Temporary Apr-19 @ 18:00 - Apr-20 @ 00:00
Clouds
  • Few at 1,500' AGL
  • Broken at 2,000' AGL
Conditions
  • Rain
Becoming Apr-20 @ 03:00 - Apr-20 @ 06:00
Wind Visibility
Variable at 3 knots 8,996 meters
Clouds
  • Few at 2,000' AGL